Shanghai Express — DPCK — position and weather

sailwx.info

Track history (hours):
 
Tides and Currents Weather Stations Pressure Air Temp Water Temp Dewpoint Dewpoint Depression Visibility Wind Speed Wind Dir Waves Ship Positions

Shanghai Express

Last reported at 2014-Jul-30 12:00 UTC. Time now 2014-Jul-31 23:41 UTC.
Position N 41°24' W 027°48'.

Length 320.6 m; beam 42.8 m; draft 14.5 m.

Type: Ship. MMSI: 211367460.

Wind from 080 at 20 knots

Waves 1.0 meters (3 feet), 9 second period

Barometer 1023.0 mb
Air temperature 22.2 ° C
Visibility: greater than 10.8 NM
Dewpoint 18.2 ° C
Water temperature 21.0 ° C

Date/timePositionNaut miles runAvg speedWind from/ knotsBaromVisibWave heightAir tempDewpointWater temp
2014-Jul-30 12:00N 41°24' W 027°48'66118.2 080 / 201023.010.8 1.022.218.221.0
2014-Jul-28 23:34N 37°55' W 014°13'18218.1
2014-Jul-28 13:32N 36°49' W 010°40'1818.0
2014-Jul-28 12:32N 36°42' W 010°19'1222.8
2014-Jul-28 12:00N 36°36' W 010°06'2316.2 270 / 121018.210.8 0.521.514.319.0
2014-Jul-28 10:33N 36°28' W 009°39'3617.6
2014-Jul-28 08:31N 36°15' W 008°57'1718.0
2014-Jul-28 07:33N 36°12' W 008°36'2117.6
2014-Jul-28 06:22N 36°09' W 008°10'1417.7
2014-Jul-28 05:33N 36°07' W 007°53'2017.7
2014-Jul-28 04:25N 36°04' W 007°28'2217.9
2014-Jul-28 03:10N 36°01' W 007°01'7317.9
2014-Jul-27 23:04N 35°59' W 005°31'19217.3
2014-Jul-27 12:00N 36°30' W 001°36'20417.8 170 / 31018.0 5.4 0.526.021.026.0
2014-Jul-27 00:31N 37°26' E 002°30'3918.4
2014-Jul-26 22:23N 37°37' E 003°18'1518.5
2014-Jul-26 21:33N 37°41' E 003°36'2418.2
2014-Jul-26 20:15N 37°47' E 004°05'1318.4
2014-Jul-26 19:33N 37°50' E 004°21'2018.2
2014-Jul-26 18:27N 37°55' E 004°46'1618.3
2014-Jul-26 17:33N 37°60' E 005°06'2218.2
2014-Jul-26 16:22N 38°06' E 005°32'16018.0
2014-Jul-26 07:29N 38°47' E 008°49'1617.6
2014-Jul-26 06:33N 38°57' E 009°05'1313.3
2014-Jul-26 05:33N 39°10' E 009°06'3 2.8
2014-Jul-26 04:33N 39°13' E 009°04'0 0.0
2014-Jul-26 03:33N 39°13' E 009°04'0 0.0
2014-Jul-26 02:33N 39°13' E 009°04'0 0.0
2014-Jul-26 01:33N 39°13' E 009°04'0 0.0
2014-Jul-26 00:33N 39°13' E 009°04'0 0.0
2014-Jul-25 23:33N 39°13' E 009°04'0 0.0
2014-Jul-25 22:33N 39°13' E 009°04'0 0.0
2014-Jul-25 21:33N 39°13' E 009°04'0 0.0
2014-Jul-25 20:33N 39°13' E 009°04'0 0.0
2014-Jul-25 19:33N 39°13' E 009°04'0 0.0
2014-Jul-25 18:32N 39°13' E 009°04'0 0.0
2014-Jul-25 17:33N 39°13' E 009°04'0 0.0
2014-Jul-25 16:33N 39°13' E 009°04'2 1.5
2014-Jul-25 15:33N 39°12' E 009°06'1211.6
2014-Jul-25 14:32N 39°03' E 009°16'2116.4
2014-Jul-25 13:17N 38°52' E 009°38'1417.9
2014-Jul-25 12:31N 38°44' E 009°53'1018.5
2014-Jul-25 12:00N 38°36' E 010°00'1020.2 090 / 101014.5 5.4 0.525.520.524.0
2014-Jul-25 11:31N 38°33' E 010°11'10915.2
2014-Jul-25 04:22N 37°30' E 012°04'7118.4
2014-Jul-25 00:29N 37°00' E 013°26'1020.9
2014-Jul-25 00:00N 36°54' E 013°36'817.5 250 / 71014.0 5.4 0.522.020.623.0
2014-Jul-24 23:33N 36°53' E 013°45'1918.7
2014-Jul-24 22:33N 36°45' E 014°07'1818.3
2014-Jul-24 21:33N 36°38' E 014°28'1918.3
2014-Jul-24 20:32N 36°32' E 014°50'1818.4
2014-Jul-24 19:33N 36°27' E 015°11'1818.2
2014-Jul-24 18:33N 36°21' E 015°32'814.6
2014-Jul-24 18:00N 36°18' E 015°42'11519.1 270 / 201011.510.8 1.024.020.424.0
2014-Jul-24 12:00N 35°36' E 017°54'23919.9 310 / 101014.5 5.4 0.525.520.525.0
2014-Jul-24 00:00N 34°18' E 022°30'32818.8 280 / 211011.5 5.4 2.025.020.725.0
2014-Jul-23 06:33N 32°36' E 028°44'6020.1
2014-Jul-23 03:33N 32°17' E 029°52'2119.5
2014-Jul-23 02:30N 32°11' E 030°15'1819.0
2014-Jul-23 01:33N 32°05' E 030°35'1919.1
2014-Jul-23 00:33N 31°58' E 030°56'2319.1
2014-Jul-22 23:20N 31°51' E 031°22'1519.1
2014-Jul-22 22:33N 31°46' E 031°39'1615.9
2014-Jul-22 21:33N 31°32' E 031°46'4 4.1
2014-Jul-22 20:33N 31°28' E 031°46'0 0.0
2014-Jul-22 19:33N 31°28' E 031°45'0 0.0
2014-Jul-22 18:33N 31°28' E 031°45'0 0.0
2014-Jul-22 17:33N 31°28' E 031°45'0 0.0
2014-Jul-22 16:33N 31°28' E 031°45'0 0.0
2014-Jul-22 15:33N 31°28' E 031°45'0 0.0
2014-Jul-22 14:33N 31°28' E 031°45'0 0.0
2014-Jul-22 13:33N 31°28' E 031°45'0 0.0
2014-Jul-22 12:33N 31°28' E 031°45'338 7.0
2014-Jul-20 12:00N 26°30' E 034°48'   320 / 251007.5 5.4 2.030.026.027.0
Track history (hours):
 
Tides and Currents Weather Stations Pressure Air Temp Water Temp Dewpoint Dewpoint Depression Visibility Wind Speed Wind Dir Waves Ship Positions

Shanghai Express

Last reported at 2014-Jul-30 12:00 UTC. Time now 2014-Jul-31 23:41 UTC.
Position N 41°24' W 027°48'.

Length 320.6 m; beam 42.8 m; draft 14.5 m.

Type: Ship. MMSI: 211367460.

Wind from 080 at 20 knots

Waves 1.0 meters (3 feet), 9 second period

Barometer 1023.0 mb
Air temperature 22.2 ° C
Visibility: greater than 10.8 NM
Dewpoint 18.2 ° C
Water temperature 21.0 ° C

Date/timePositionNaut miles runAvg speedWind from/ knotsBaromVisibWave heightAir tempDewpointWater temp
2014-Jul-30 12:00N 41°24' W 027°48'66118.2 080 / 201023.010.8 1.022.218.221.0
2014-Jul-28 23:34N 37°55' W 014°13'18218.1
2014-Jul-28 13:32N 36°49' W 010°40'1818.0
2014-Jul-28 12:32N 36°42' W 010°19'1222.8
2014-Jul-28 12:00N 36°36' W 010°06'2316.2 270 / 121018.210.8 0.521.514.319.0
2014-Jul-28 10:33N 36°28' W 009°39'3617.6
2014-Jul-28 08:31N 36°15' W 008°57'1718.0
2014-Jul-28 07:33N 36°12' W 008°36'2117.6
2014-Jul-28 06:22N 36°09' W 008°10'1417.7
2014-Jul-28 05:33N 36°07' W 007°53'2017.7
2014-Jul-28 04:25N 36°04' W 007°28'2217.9
2014-Jul-28 03:10N 36°01' W 007°01'7317.9
2014-Jul-27 23:04N 35°59' W 005°31'19217.3
2014-Jul-27 12:00N 36°30' W 001°36'20417.8 170 / 31018.0 5.4 0.526.021.026.0
2014-Jul-27 00:31N 37°26' E 002°30'3918.4
2014-Jul-26 22:23N 37°37' E 003°18'1518.5
2014-Jul-26 21:33N 37°41' E 003°36'2418.2
2014-Jul-26 20:15N 37°47' E 004°05'1318.4
2014-Jul-26 19:33N 37°50' E 004°21'2018.2
2014-Jul-26 18:27N 37°55' E 004°46'1618.3
2014-Jul-26 17:33N 37°60' E 005°06'2218.2
2014-Jul-26 16:22N 38°06' E 005°32'16018.0
2014-Jul-26 07:29N 38°47' E 008°49'1617.6
2014-Jul-26 06:33N 38°57' E 009°05'1313.3
2014-Jul-26 05:33N 39°10' E 009°06'3 2.8
2014-Jul-26 04:33N 39°13' E 009°04'0 0.0
2014-Jul-26 03:33N 39°13' E 009°04'0 0.0
2014-Jul-26 02:33N 39°13' E 009°04'0 0.0
2014-Jul-26 01:33N 39°13' E 009°04'0 0.0
2014-Jul-26 00:33N 39°13' E 009°04'0 0.0
2014-Jul-25 23:33N 39°13' E 009°04'0 0.0
2014-Jul-25 22:33N 39°13' E 009°04'0 0.0
2014-Jul-25 21:33N 39°13' E 009°04'0 0.0
2014-Jul-25 20:33N 39°13' E 009°04'0 0.0
2014-Jul-25 19:33N 39°13' E 009°04'0 0.0
2014-Jul-25 18:32N 39°13' E 009°04'0 0.0
2014-Jul-25 17:33N 39°13' E 009°04'0 0.0
2014-Jul-25 16:33N 39°13' E 009°04'2 1.5
2014-Jul-25 15:33N 39°12' E 009°06'1211.6
2014-Jul-25 14:32N 39°03' E 009°16'2116.4
2014-Jul-25 13:17N 38°52' E 009°38'1417.9
2014-Jul-25 12:31N 38°44' E 009°53'1018.5
2014-Jul-25 12:00N 38°36' E 010°00'1020.2 090 / 101014.5 5.4 0.525.520.524.0
2014-Jul-25 11:31N 38°33' E 010°11'10915.2
2014-Jul-25 04:22N 37°30' E 012°04'7118.4
2014-Jul-25 00:29N 37°00' E 013°26'1020.9
2014-Jul-25 00:00N 36°54' E 013°36'817.5 250 / 71014.0 5.4 0.522.020.623.0
2014-Jul-24 23:33N 36°53' E 013°45'1918.7
2014-Jul-24 22:33N 36°45' E 014°07'1818.3
2014-Jul-24 21:33N 36°38' E 014°28'1918.3
2014-Jul-24 20:32N 36°32' E 014°50'1818.4
2014-Jul-24 19:33N 36°27' E 015°11'1818.2
2014-Jul-24 18:33N 36°21' E 015°32'814.6
2014-Jul-24 18:00N 36°18' E 015°42'11519.1 270 / 201011.510.8 1.024.020.424.0
2014-Jul-24 12:00N 35°36' E 017°54'23919.9 310 / 101014.5 5.4 0.525.520.525.0
2014-Jul-24 00:00N 34°18' E 022°30'32818.8 280 / 211011.5 5.4 2.025.020.725.0
2014-Jul-23 06:33N 32°36' E 028°44'6020.1
2014-Jul-23 03:33N 32°17' E 029°52'2119.5
2014-Jul-23 02:30N 32°11' E 030°15'1819.0
2014-Jul-23 01:33N 32°05' E 030°35'1919.1
2014-Jul-23 00:33N 31°58' E 030°56'2319.1
2014-Jul-22 23:20N 31°51' E 031°22'1519.1
2014-Jul-22 22:33N 31°46' E 031°39'1615.9
2014-Jul-22 21:33N 31°32' E 031°46'4 4.1
2014-Jul-22 20:33N 31°28' E 031°46'0 0.0
2014-Jul-22 19:33N 31°28' E 031°45'0 0.0
2014-Jul-22 18:33N 31°28' E 031°45'0 0.0
2014-Jul-22 17:33N 31°28' E 031°45'0 0.0
2014-Jul-22 16:33N 31°28' E 031°45'0 0.0
2014-Jul-22 15:33N 31°28' E 031°45'0 0.0
2014-Jul-22 14:33N 31°28' E 031°45'0 0.0
2014-Jul-22 13:33N 31°28' E 031°45'0 0.0
2014-Jul-22 12:33N 31°28' E 031°45'338 7.0
2014-Jul-20 12:00N 26°30' E 034°48'   320 / 251007.5 5.4 2.030.026.027.0

Dump ship's entire track history